createdAt,value
2018-04-28T00:00:36.870Z,12.10
2018-04-28T00:03:04.395Z,12.10
2018-04-28T00:05:31.949Z,12.00
2018-04-28T00:07:59.536Z,12.00
2018-04-28T00:10:27.066Z,12.00
2018-04-28T00:12:54.570Z,12.00
2018-04-28T00:15:22.124Z,11.90
2018-04-28T00:17:49.626Z,11.90
2018-04-28T00:20:26.439Z,11.90
2018-04-28T00:22:59.386Z,11.90
2018-04-28T00:25:46.218Z,11.90
2018-04-28T00:31:48.167Z,11.90
2018-04-28T00:34:15.733Z,11.80
2018-04-28T00:37:01.764Z,11.80
2018-04-28T00:39:29.341Z,11.80
2018-04-28T00:41:57.735Z,11.70
2018-04-28T00:44:26.211Z,11.70
2018-04-28T00:50:21.527Z,11.70
2018-04-28T00:52:49.029Z,11.60
2018-04-28T00:55:19.476Z,11.60
2018-04-28T00:57:59.522Z,11.60
2018-04-28T01:00:59.510Z,11.60
2018-04-28T01:03:53.206Z,11.50
2018-04-28T01:06:20.727Z,11.50
2018-04-28T01:08:48.273Z,11.50
2018-04-28T01:11:16.562Z,11.50
2018-04-28T01:13:44.856Z,11.50
2018-04-28T01:16:13.135Z,11.50
2018-04-28T01:18:43.281Z,11.50
2018-04-28T01:21:10.770Z,11.50
2018-04-28T01:23:57.039Z,11.50
2018-04-28T01:26:30.365Z,11.50
2018-04-28T01:32:13.458Z,11.50
2018-04-28T01:34:41.714Z,11.40
2018-04-28T01:37:24.902Z,11.40
2018-04-28T01:39:57.079Z,11.40
2018-04-28T01:45:41.057Z,11.40
2018-04-28T01:48:11.393Z,11.30
2018-04-28T01:51:03.681Z,11.30
2018-04-28T01:53:31.213Z,11.30
2018-04-28T01:56:20.866Z,11.20
2018-04-28T01:58:57.834Z,11.20
2018-04-28T02:01:41.051Z,11.20
2018-04-28T02:04:12.071Z,11.20
2018-04-28T02:06:57.323Z,11.20
2018-04-28T02:09:24.921Z,11.20
2018-04-28T02:11:52.554Z,11.10
2018-04-28T02:14:26.658Z,11.10
2018-04-28T02:17:09.983Z,11.10
2018-04-28T02:19:39.475Z,11.00
2018-04-28T02:22:14.877Z,11.00
2018-04-28T02:24:59.173Z,11.00
2018-04-28T02:27:54.165Z,11.00
2018-04-28T02:30:22.459Z,10.90
2018-04-28T02:32:53.809Z,10.90
2018-04-28T02:35:50.307Z,10.90
2018-04-28T02:38:37.515Z,11.00
2018-04-28T02:41:08.440Z,10.90
2018-04-28T02:46:42.823Z,10.90
2018-04-28T02:49:16.754Z,10.90
2018-04-28T02:51:46.228Z,10.90
2018-04-28T02:54:25.518Z,10.90
2018-04-28T02:57:02.690Z,10.90
2018-04-28T02:59:30.218Z,10.90
2018-04-28T03:02:02.211Z,10.90
2018-04-28T03:04:34.453Z,10.90
2018-04-28T03:10:04.163Z,10.80
2018-04-28T03:12:31.698Z,10.70
2018-04-28T03:14:59.196Z,10.80
2018-04-28T03:17:38.245Z,10.70
2018-04-28T03:20:09.461Z,10.70
2018-04-28T03:22:37.899Z,10.70
2018-04-28T03:25:06.870Z,10.70
2018-04-28T03:27:55.213Z,10.70
2018-04-28T03:30:43.456Z,10.70
2018-04-28T03:33:19.494Z,10.70
2018-04-28T03:35:48.886Z,10.70
2018-04-28T03:38:24.043Z,10.70
2018-04-28T03:40:54.252Z,10.60
2018-04-28T03:43:30.222Z,10.70
2018-04-28T03:49:00.998Z,10.70
2018-04-28T03:51:32.967Z,10.80
2018-04-28T03:54:11.234Z,10.70
2018-04-28T03:56:39.478Z,10.80
2018-04-28T03:59:19.066Z,10.70
2018-04-28T04:01:58.447Z,10.80
2018-04-28T04:04:37.903Z,10.80
2018-04-28T04:07:36.348Z,10.80
2018-04-28T04:10:12.422Z,10.80
2018-04-28T04:12:45.628Z,10.80
2018-04-28T04:15:19.177Z,10.80
2018-04-28T04:17:49.148Z,10.80
2018-04-28T04:20:20.418Z,10.80
2018-04-28T04:26:09.209Z,10.90
2018-04-28T04:28:39.297Z,10.90
2018-04-28T04:31:21.731Z,10.90
2018-04-28T04:33:50.091Z,11.00
2018-04-28T04:36:26.578Z,11.00
2018-04-28T04:38:59.719Z,11.20
2018-04-28T04:41:28.196Z,11.20
2018-04-28T04:44:17.294Z,11.40
2018-04-28T04:50:06.610Z,11.40
2018-04-28T04:52:35.018Z,11.40
2018-04-28T04:55:20.370Z,11.40
2018-04-28T04:57:59.551Z,11.40
2018-04-28T05:00:32.539Z,11.40
2018-04-28T05:03:09.581Z,11.40
2018-04-28T05:05:46.705Z,11.50
2018-04-28T05:08:20.975Z,11.50
2018-04-28T05:10:54.665Z,11.60
2018-04-28T05:13:44.359Z,11.70
2018-04-28T05:16:17.963Z,11.70
2018-04-28T05:18:46.259Z,11.70
2018-04-28T05:21:25.614Z,11.80
2018-04-28T05:24:14.902Z,11.90
2018-04-28T05:26:43.240Z,11.90
2018-04-28T05:29:18.474Z,12.10
2018-04-28T05:31:50.895Z,12.20
2018-04-28T05:37:35.023Z,12.50
2018-04-28T05:43:33.123Z,12.70
2018-04-28T05:46:14.492Z,12.80
2018-04-28T05:48:48.883Z,12.80
2018-04-28T05:51:19.906Z,12.90
2018-04-28T05:53:58.144Z,13.10
2018-04-28T05:59:41.349Z,13.30
2018-04-28T06:02:31.375Z,13.50
2018-04-28T06:05:19.558Z,13.80
2018-04-28T06:08:10.953Z,14.10
2018-04-28T06:10:49.938Z,14.30
2018-04-28T06:13:33.470Z,14.50
2018-04-28T06:16:12.799Z,14.70
2018-04-28T06:18:44.149Z,14.90
2018-04-28T06:21:11.909Z,15.10
2018-04-28T06:23:39.420Z,15.30
2018-04-28T06:26:07.116Z,15.40
2018-04-28T06:28:34.502Z,15.60
2018-04-28T06:31:02.005Z,15.70
2018-04-28T06:33:29.545Z,15.90
2018-04-28T06:35:57.043Z,16.00
2018-04-28T06:38:24.755Z,16.20
2018-04-28T06:40:53.021Z,16.40
2018-04-28T06:43:21.319Z,16.50
2018-04-28T06:45:48.863Z,16.50
2018-04-28T06:48:16.370Z,16.60
2018-04-28T06:50:43.907Z,16.70
2018-04-28T06:53:11.419Z,16.80
2018-04-28T06:55:39.136Z,16.90
2018-04-28T06:58:06.661Z,17.00
2018-04-28T07:00:35.004Z,17.20
2018-04-28T07:03:02.511Z,17.20
2018-04-28T07:05:30.030Z,17.30
2018-04-28T07:07:57.578Z,17.30
2018-04-28T07:10:25.082Z,17.40
2018-04-28T07:12:52.739Z,17.50
2018-04-28T07:15:20.320Z,17.60
2018-04-28T07:17:47.862Z,17.70
2018-04-28T07:20:15.582Z,17.70
2018-04-28T07:22:43.120Z,17.90
2018-04-28T07:25:10.625Z,18.00
2018-04-28T07:27:38.171Z,18.00
2018-04-28T07:30:05.667Z,18.10
2018-04-28T07:32:33.281Z,18.20
2018-04-28T07:35:00.775Z,18.30
2018-04-28T07:37:29.079Z,18.40
2018-04-28T07:39:56.632Z,18.40
2018-04-28T07:42:24.246Z,18.50
2018-04-28T07:44:51.699Z,18.60
2018-04-28T07:47:19.253Z,18.70
2018-04-28T07:49:46.753Z,18.80
2018-04-28T07:52:15.051Z,18.90
2018-04-28T07:54:42.602Z,18.90
2018-04-28T07:57:10.100Z,19.10
2018-04-28T07:59:37.648Z,19.10
2018-04-28T08:02:05.147Z,19.20
2018-04-28T08:04:32.902Z,19.30
2018-04-28T08:07:00.504Z,19.40
2018-04-28T08:09:28.026Z,19.40
2018-04-28T08:11:56.432Z,19.60
2018-04-28T08:14:23.917Z,19.60
2018-04-28T08:16:51.464Z,19.70
2018-04-28T08:19:18.942Z,19.80
2018-04-28T08:21:46.472Z,19.80
2018-04-28T08:24:14.146Z,19.90
2018-04-28T08:26:41.767Z,20.00
2018-04-28T08:29:09.266Z,20.10
2018-04-28T08:31:36.798Z,20.20
2018-04-28T08:34:05.087Z,20.30
2018-04-28T08:36:32.676Z,20.20
2018-04-28T08:39:00.231Z,20.30
2018-04-28T08:41:27.797Z,20.40
2018-04-28T08:43:55.303Z,20.40
2018-04-28T08:46:24.388Z,20.60
2018-04-28T08:48:52.715Z,20.60
2018-04-28T08:51:20.257Z,20.60
2018-04-28T08:53:47.785Z,20.70
2018-04-28T08:56:16.060Z,20.90
2018-04-28T08:58:44.379Z,21.00
2018-04-28T09:01:11.884Z,20.90
2018-04-28T09:03:39.528Z,21.10
2018-04-28T09:06:07.745Z,21.20
2018-04-28T09:08:36.103Z,21.20
2018-04-28T09:11:03.606Z,21.20
2018-04-28T09:13:31.182Z,21.30
2018-04-28T09:15:58.694Z,21.30
2018-04-28T09:18:26.250Z,21.40
2018-04-28T09:20:54.513Z,21.50
2018-04-28T09:23:22.060Z,21.40
2018-04-28T09:25:49.563Z,21.50
2018-04-28T09:28:17.094Z,21.60
2018-04-28T09:30:45.361Z,21.60
2018-04-28T09:33:12.899Z,21.60
2018-04-28T09:35:40.411Z,21.70
2018-04-28T09:38:08.039Z,21.70
2018-04-28T09:40:37.075Z,21.80
2018-04-28T09:43:04.568Z,21.80
2018-04-28T09:45:32.090Z,21.80
2018-04-28T09:47:59.609Z,21.80
2018-04-28T09:50:27.132Z,21.80
2018-04-28T09:52:54.676Z,21.80
2018-04-28T09:55:22.238Z,21.90
2018-04-28T09:58:01.542Z,21.90
2018-04-28T10:00:30.555Z,21.90
2018-04-28T10:02:58.052Z,21.90
2018-04-28T10:05:25.590Z,21.90
2018-04-28T10:07:53.082Z,21.90
2018-04-28T10:10:20.626Z,21.90
2018-04-28T10:12:48.266Z,21.90
2018-04-28T10:15:15.734Z,21.90
2018-04-28T10:17:43.248Z,21.80
2018-04-28T10:20:11.639Z,21.80
2018-04-28T10:22:39.055Z,21.80
2018-04-28T10:25:06.596Z,21.90
2018-04-28T10:27:34.106Z,21.90
2018-04-28T10:30:02.423Z,21.90
2018-04-28T10:32:29.915Z,21.90
2018-04-28T10:34:58.215Z,21.90
2018-04-28T10:37:25.728Z,21.90
2018-04-28T10:39:53.269Z,21.80
2018-04-28T10:42:20.767Z,21.90
2018-04-28T10:44:48.310Z,21.80
2018-04-28T10:47:15.819Z,21.80
2018-04-28T10:49:43.363Z,21.70
2018-04-28T10:52:10.877Z,21.60
2018-04-28T10:54:38.384Z,21.70
2018-04-28T10:57:06.687Z,21.70
2018-04-28T10:59:34.179Z,21.70
2018-04-28T11:02:01.712Z,21.70
2018-04-28T11:04:29.200Z,21.70
2018-04-28T11:06:56.726Z,21.60
2018-04-28T11:09:24.222Z,21.60
2018-04-28T11:11:52.728Z,21.60
2018-04-28T11:14:20.277Z,21.60
2018-04-28T11:16:48.582Z,21.60
2018-04-28T11:19:16.141Z,21.60
2018-04-28T11:21:43.642Z,21.60
2018-04-28T11:24:11.178Z,21.60
2018-04-28T11:26:38.684Z,21.60
2018-04-28T11:29:06.227Z,21.50
2018-04-28T11:31:34.437Z,21.40
2018-04-28T11:34:01.971Z,21.40
2018-04-28T11:36:29.459Z,21.30
2018-04-28T11:38:57.765Z,21.30
2018-04-28T11:41:25.280Z,21.30
2018-04-28T11:43:52.803Z,21.30
2018-04-28T11:46:20.305Z,21.30
2018-04-28T11:48:48.598Z,21.10
2018-04-28T11:51:16.082Z,21.10
2018-04-28T11:53:43.625Z,21.10
2018-04-28T11:56:11.125Z,21.10
2018-04-28T11:58:38.650Z,21.00
2018-04-28T12:01:06.182Z,21.00
2018-04-28T12:03:33.686Z,21.00
2018-04-28T12:06:01.220Z,20.90
2018-04-28T12:08:28.768Z,20.90
2018-04-28T12:10:56.316Z,20.90
2018-04-28T12:13:24.709Z,20.90
2018-04-28T12:15:52.206Z,20.90
2018-04-28T12:18:19.710Z,20.90
2018-04-28T12:20:48.022Z,20.80
2018-04-28T12:23:15.519Z,20.80
2018-04-28T12:25:43.820Z,20.70
2018-04-28T12:28:11.315Z,20.70
2018-04-28T12:30:38.850Z,20.70
2018-04-28T12:33:06.358Z,20.70
2018-04-28T12:35:33.887Z,20.70
2018-04-28T12:38:01.386Z,20.80
2018-04-28T12:40:29.107Z,20.90
2018-04-28T12:42:56.604Z,21.10
2018-04-28T12:45:24.157Z,21.30
2018-04-28T12:47:51.656Z,21.60
2018-04-28T12:50:19.973Z,22.20
2018-04-28T12:52:47.463Z,22.20
2018-04-28T12:55:15.173Z,22.50
2018-04-28T12:57:42.659Z,22.50
2018-04-28T13:00:10.192Z,22.50
2018-04-28T13:02:37.698Z,22.70
2018-04-28T13:05:05.228Z,22.90
2018-04-28T13:07:32.724Z,23.30
2018-04-28T13:10:00.255Z,23.80
2018-04-28T13:12:27.933Z,24.80
2018-04-28T13:14:55.454Z,25.40
2018-04-28T13:17:22.958Z,25.30
2018-04-28T13:19:50.487Z,25.30
2018-04-28T13:22:17.989Z,25.80
2018-04-28T13:24:45.522Z,25.90
2018-04-28T13:27:13.021Z,26.30
2018-04-28T13:29:40.556Z,26.50
2018-04-28T13:32:08.811Z,26.80
2018-04-28T13:34:36.356Z,26.80
2018-04-28T13:37:03.882Z,27.20
2018-04-28T13:39:32.598Z,27.10
2018-04-28T13:42:00.104Z,26.50
2018-04-28T13:44:27.660Z,26.00
2018-04-28T13:46:55.917Z,25.30
2018-04-28T13:49:23.467Z,25.30
2018-04-28T13:51:52.478Z,24.90
2018-04-28T13:54:19.970Z,24.90
2018-04-28T13:56:47.491Z,24.80
2018-04-28T13:59:14.999Z,24.60
2018-04-28T14:01:42.552Z,24.50
2018-04-28T14:04:10.056Z,24.40
2018-04-28T14:06:37.609Z,24.40
2018-04-28T14:09:06.029Z,24.30
2018-04-28T14:11:33.559Z,24.30
2018-04-28T14:14:01.078Z,24.30
2018-04-28T14:16:28.614Z,24.20
2018-04-28T14:18:56.103Z,24.20
2018-04-28T14:21:23.662Z,24.30
2018-04-28T14:23:51.178Z,24.40
2018-04-28T14:26:18.712Z,24.40
2018-04-28T14:28:46.215Z,24.30
2018-04-28T14:31:13.751Z,24.20
2018-04-28T14:33:41.700Z,24.20
2018-04-28T14:36:09.235Z,24.10
2018-04-28T14:38:36.734Z,24.10
2018-04-28T14:41:04.267Z,24.20
2018-04-28T14:43:31.786Z,24.30
2018-04-28T14:45:59.319Z,24.20
2018-04-28T14:48:26.831Z,24.20
2018-04-28T14:50:54.394Z,24.50
2018-04-28T14:53:21.887Z,24.40
2018-04-28T14:55:49.385Z,24.30
2018-04-28T14:58:17.110Z,24.20
2018-04-28T15:00:44.558Z,24.10
2018-04-28T15:03:12.101Z,24.00
2018-04-28T15:05:40.364Z,23.80
2018-04-28T15:08:07.903Z,23.80
2018-04-28T15:10:35.555Z,23.80
2018-04-28T15:13:03.084Z,23.70
2018-04-28T15:15:31.355Z,23.60
2018-04-28T15:17:59.676Z,23.50
2018-04-28T15:20:27.186Z,23.40
2018-04-28T15:22:54.813Z,23.40
2018-04-28T15:25:23.017Z,23.50
2018-04-28T15:27:51.346Z,23.50
2018-04-28T15:30:18.839Z,23.50
2018-04-28T15:32:46.427Z,23.80
2018-04-28T15:35:14.692Z,23.80
2018-04-28T15:37:42.205Z,23.80
2018-04-28T15:40:09.735Z,23.90
2018-04-28T15:42:38.003Z,23.70
2018-04-28T15:45:05.538Z,23.60
2018-04-28T15:47:33.045Z,23.50
2018-04-28T15:50:00.969Z,23.40
2018-04-28T15:52:28.414Z,23.30
2018-04-28T15:54:57.651Z,23.50
2018-04-28T15:57:25.917Z,23.80
2018-04-28T15:59:54.228Z,23.80
2018-04-28T16:02:21.722Z,23.70
2018-04-28T16:04:49.267Z,23.70
2018-04-28T16:07:16.839Z,23.80
2018-04-28T16:09:44.461Z,23.60
2018-04-28T16:12:11.964Z,23.40
2018-04-28T16:14:39.567Z,23.30
2018-04-28T16:17:07.027Z,23.20
2018-04-28T16:19:34.530Z,23.10
2018-04-28T16:22:02.866Z,23.00
2018-04-28T16:24:30.392Z,22.90
2018-04-28T16:26:57.930Z,22.80
2018-04-28T16:29:25.490Z,22.70
2018-04-28T16:31:53.030Z,22.60
2018-04-28T16:34:20.535Z,22.60
2018-04-28T16:36:48.835Z,22.50
2018-04-28T16:39:16.359Z,22.50
2018-04-28T16:41:43.910Z,22.50
2018-04-28T16:44:11.530Z,22.40
2018-04-28T16:46:39.049Z,22.30
2018-04-28T16:49:07.320Z,22.10
2018-04-28T16:51:35.641Z,22.00
2018-04-28T16:54:03.159Z,22.00
2018-04-28T16:56:30.725Z,22.00
2018-04-28T16:58:58.997Z,21.80
2018-04-28T17:01:27.305Z,21.70
2018-04-28T17:03:54.913Z,21.70
2018-04-28T17:06:23.149Z,21.60
2018-04-28T17:08:50.692Z,21.50
2018-04-28T17:11:18.220Z,21.40
2018-04-28T17:13:45.729Z,21.30
2018-04-28T17:16:13.293Z,21.20
2018-04-28T17:18:40.804Z,21.10
2018-04-28T17:21:08.352Z,21.00
2018-04-28T17:23:35.875Z,21.00
2018-04-28T17:26:03.414Z,21.00
2018-04-28T17:28:30.913Z,20.90
2018-04-28T17:30:58.466Z,20.80
2018-04-28T17:33:25.979Z,20.80
2018-04-28T17:35:53.528Z,20.70
2018-04-28T17:38:21.895Z,20.60
2018-04-28T17:40:49.428Z,20.60
2018-04-28T17:43:17.676Z,20.60
2018-04-28T17:45:45.246Z,20.50
2018-04-28T17:48:12.770Z,20.40
2018-04-28T17:50:40.274Z,20.40
2018-04-28T17:53:07.828Z,20.30
2018-04-28T17:55:35.600Z,20.20
2018-04-28T17:58:03.107Z,20.10
2018-04-28T18:00:30.873Z,20.00
2018-04-28T18:02:58.374Z,20.00
2018-04-28T18:05:25.904Z,19.90
2018-04-28T18:07:53.445Z,19.90
2018-04-28T18:10:20.983Z,19.80
2018-04-28T18:12:49.389Z,19.70
2018-04-28T18:15:17.446Z,19.70
2018-04-28T18:17:44.955Z,19.70
2018-04-28T18:20:12.451Z,19.60
2018-04-28T18:22:40.755Z,19.50
2018-04-28T18:25:08.300Z,19.50
2018-04-28T18:27:35.896Z,19.50
2018-04-28T18:30:03.446Z,19.50
2018-04-28T18:32:31.007Z,19.40
2018-04-28T18:34:58.524Z,19.40
2018-04-28T18:37:26.691Z,19.40
2018-04-28T18:39:54.207Z,19.30
2018-04-28T18:42:21.771Z,19.30
2018-04-28T18:44:49.257Z,19.20
2018-04-28T18:47:17.633Z,19.10
2018-04-28T18:49:45.153Z,19.10
2018-04-28T18:52:12.682Z,19.10
2018-04-28T18:54:40.944Z,19.00
2018-04-28T18:57:09.298Z,19.00
2018-04-28T18:59:36.827Z,18.90
2018-04-28T19:02:04.373Z,19.00
2018-04-28T19:04:34.850Z,18.90
2018-04-28T19:07:02.444Z,18.90
2018-04-28T19:09:29.990Z,18.80
2018-04-28T19:11:57.579Z,18.70
2018-04-28T19:14:25.078Z,18.60
2018-04-28T19:16:52.725Z,18.60
2018-04-28T19:19:20.278Z,18.60
2018-04-28T19:21:47.784Z,18.50
2018-04-28T19:24:15.358Z,18.40
2018-04-28T19:26:43.650Z,18.40
2018-04-28T19:29:11.197Z,18.40
2018-04-28T19:31:38.695Z,18.40
2018-04-28T19:34:06.367Z,18.30
2018-04-28T19:36:33.928Z,18.30
2018-04-28T19:39:01.491Z,18.30
2018-04-28T19:41:29.172Z,18.20
2018-04-28T19:43:56.725Z,18.20
2018-04-28T19:46:24.250Z,18.20
2018-04-28T19:48:51.794Z,18.10
2018-04-28T19:51:19.297Z,18.10
2018-04-28T19:53:46.852Z,18.00
2018-04-28T19:56:14.353Z,18.00
2018-04-28T19:58:42.662Z,17.80
2018-04-28T20:01:10.184Z,17.70
2018-04-28T20:03:37.696Z,17.70
2018-04-28T20:06:05.554Z,17.70
2018-04-28T20:08:33.237Z,17.60
2018-04-28T20:11:00.840Z,17.60
2018-04-28T20:13:28.340Z,17.60
2018-04-28T20:15:55.938Z,17.60
2018-04-28T20:18:23.541Z,17.60
2018-04-28T20:20:51.154Z,17.60
2018-04-28T20:23:31.305Z,17.60
2018-04-28T20:25:58.863Z,17.50
2018-04-28T20:28:26.378Z,17.50
2018-04-28T20:30:53.940Z,17.50
2018-04-28T20:33:21.447Z,17.50
2018-04-28T20:35:49.009Z,17.50
2018-04-28T20:38:17.339Z,17.40
2018-04-28T20:40:44.896Z,17.40
2018-04-28T20:43:12.396Z,17.40
2018-04-28T20:45:39.904Z,17.30
2018-04-28T20:48:07.434Z,17.30
2018-04-28T20:50:35.131Z,17.30
2018-04-28T20:53:02.639Z,17.30
2018-04-28T20:55:30.993Z,17.10
2018-04-28T20:57:58.496Z,17.10
2018-04-28T21:00:26.095Z,17.10
2018-04-28T21:02:53.611Z,17.00
2018-04-28T21:05:21.146Z,17.00
2018-04-28T21:07:48.740Z,16.90
2018-04-28T21:10:16.432Z,16.90
2018-04-28T21:12:44.024Z,16.90
2018-04-28T21:15:11.692Z,16.90
2018-04-28T21:17:39.202Z,16.90
2018-04-28T21:20:06.805Z,16.90
2018-04-28T21:22:34.341Z,16.80
2018-04-28T21:25:01.872Z,16.80
2018-04-28T21:27:29.366Z,16.80
2018-04-28T21:29:56.898Z,16.80
2018-04-28T21:32:24.569Z,16.80
2018-04-28T21:34:52.214Z,16.80
2018-04-28T21:37:19.827Z,16.80
2018-04-28T21:39:47.368Z,16.70
2018-04-28T21:42:14.866Z,16.60
2018-04-28T21:44:44.078Z,16.50
2018-04-28T21:47:11.595Z,16.50
2018-04-28T21:49:39.119Z,16.50
2018-04-28T21:52:06.629Z,16.40
2018-04-28T21:54:34.175Z,16.40
2018-04-28T21:57:01.699Z,16.30
2018-04-28T21:59:29.287Z,16.30
2018-04-28T22:01:56.893Z,16.30
2018-04-28T22:04:25.463Z,16.30
2018-04-28T22:06:53.728Z,16.30
2018-04-28T22:09:22.042Z,16.20
2018-04-28T22:11:49.543Z,16.20
2018-04-28T22:14:17.247Z,16.20
2018-04-28T22:16:44.768Z,16.20
2018-04-28T22:19:12.307Z,16.30
2018-04-28T22:21:39.808Z,16.30
2018-04-28T22:24:07.349Z,16.20
2018-04-28T22:26:34.855Z,16.20
2018-04-28T22:29:02.382Z,16.20
2018-04-28T22:31:29.872Z,16.10
2018-04-28T22:33:57.406Z,16.10
2018-04-28T22:36:25.669Z,16.00
2018-04-28T22:38:53.981Z,16.00
2018-04-28T22:41:21.477Z,16.00
2018-04-28T22:43:49.017Z,15.90
2018-04-28T22:46:16.519Z,15.90
2018-04-28T22:48:44.071Z,15.80
2018-04-28T22:51:11.577Z,15.80
2018-04-28T22:53:39.084Z,15.70
2018-04-28T22:56:06.629Z,15.70
2018-04-28T22:58:34.131Z,15.60
2018-04-28T23:01:01.679Z,15.60
2018-04-28T23:03:29.942Z,15.50
2018-04-28T23:05:57.502Z,15.50
2018-04-28T23:08:25.763Z,15.50
2018-04-28T23:10:53.294Z,15.50
2018-04-28T23:13:20.877Z,15.50
2018-04-28T23:15:48.416Z,15.50
2018-04-28T23:18:15.939Z,15.40
2018-04-28T23:20:44.206Z,15.40
2018-04-28T23:23:12.524Z,15.40
2018-04-28T23:25:40.026Z,15.40
2018-04-28T23:28:07.584Z,15.40
2018-04-28T23:30:35.094Z,15.40
2018-04-28T23:33:02.644Z,15.40
2018-04-28T23:35:30.150Z,15.40
2018-04-28T23:37:57.694Z,15.40
2018-04-28T23:40:25.202Z,15.40
2018-04-28T23:42:52.749Z,15.40
2018-04-28T23:45:20.247Z,15.30
2018-04-28T23:47:47.754Z,15.30
2018-04-28T23:50:15.298Z,15.30
2018-04-28T23:52:42.834Z,15.20
2018-04-28T23:55:10.346Z,15.20
2018-04-28T23:57:37.878Z,15.10
